Terminal Aerodrome Forecast
Issued by NWS

Home | Current Version | Previous Version | Graphics & Text | Print | Product List | Glossary On
Versions: 1 2 3 4 5 6 7 8 9 10 11 12 13 14 15
000
FTUS43 KGRB 241100
TAFATW
TAF
KATW 241136Z 2412/2512 22017G25KT P6SM SCT040 OVC080 WS018/25040KT
      TEMPO 2412/2413 6SM -SN BKN040
     FM241300 24017G27KT 6SM -SN BKN035 OVC060 WS018/27040KT
      TEMPO 2414/2416 2SM -SN BKN025
     FM241700 27017G27KT P6SM -SN BKN035 OVC070
     FM242200 30018G28KT 6SM -SN BLSN SCT020 BKN035
     FM250200 32012KT P6SM SCT035
     FM250800 31006KT P6SM SCT035=

USA.gov is the U.S. government's official web portal to all federal, state and local government web resources and services.